»·PEaware :: YV153T KSEA-KGEG

YV153T :: KSEA-KGEG

FLIGHT INFORMATION

Flight Status: Arrived
Operator: Privately registered:
Venezuela
More flights under this callsign
Pilot: Jose A. (17505)
Aircraft: MCDONNELL-DOUGLAS MD-88
(MD88)
More flights by this aircraft type
Origin: KSEA Seattle-Tacoma Intl
United States
Destination: KGEG Spokane Intl
United States
More flights between these airports :: More routes between these airports
Route: +ZADON ZELAK ZIRAN ZOOMR ZOOMR1
File this flight plan on PilotEdge
Remarks: PBN / B1C1D2O1T1 DOF / 180326 REG / YV153T RVR / 550 OPR / ASERCA AIRLINES
Altitude:
(Current/Filed)
29,000ft
Speed:
(Current/Filed)
447kts
Departed: 26-Mar-18 05:21 PM
Arrived: 26-Mar-18 06:06 PM
Distance/Time
Traveled:
194nm/0:45
Distance/Time
To Go:
Arrived

Flight Plot

Page will automatically refresh every two minutes.


Map Options




Map Legend


Flown Route
Filed Route
Departure Airport
Arrival Airport
Navaid (VOR, NDB)
Fix

Horizontal Profiles

Position Reports

Time Latitude Longitude Heading Altitude Ground
Speed
26-Mar-18 16:29 47.447697 -122.300827 310 391ft 0kts
26-Mar-18 16:30 47.447697 -122.300827 310 391ft 0kts
26-Mar-18 16:31 47.447697 -122.300827 310 391ft 0kts
26-Mar-18 16:32 47.447697 -122.300827 310 391ft 0kts
26-Mar-18 16:33 47.447697 -122.300827 310 391ft 0kts
26-Mar-18 16:34 47.447697 -122.300827 310 391ft 0kts
26-Mar-18 16:35 47.447697 -122.300827 310 391ft 0kts
26-Mar-18 16:36 47.447697 -122.300827 310 391ft 0kts
26-Mar-18 16:37 47.447697 -122.300827 310 391ft 0kts
26-Mar-18 16:38 47.447697 -122.300827 310 391ft 0kts
26-Mar-18 16:39 47.447697 -122.300827 310 391ft 0kts
26-Mar-18 16:40 47.447697 -122.300827 310 391ft 0kts
26-Mar-18 16:41 47.447697 -122.300827 310 391ft 0kts
26-Mar-18 16:42 47.447697 -122.300827 310 391ft 0kts
26-Mar-18 16:43 47.447697 -122.300827 310 391ft 0kts
26-Mar-18 16:44 47.447697 -122.300827 310 391ft 0kts
26-Mar-18 16:45 47.447697 -122.300827 310 391ft 0kts
26-Mar-18 16:46 47.447697 -122.300827 310 391ft 0kts
26-Mar-18 16:47 47.447697 -122.300827 310 391ft 0kts
26-Mar-18 16:48 47.447697 -122.300827 310 391ft 0kts
26-Mar-18 16:49 47.447697 -122.300827 310 391ft 0kts
26-Mar-18 16:50 47.447697 -122.300827 310 391ft 0kts
26-Mar-18 16:51 47.447697 -122.300827 310 391ft 0kts
26-Mar-18 16:52 47.447697 -122.300827 310 391ft 0kts
26-Mar-18 16:53 47.447697 -122.300827 310 391ft 0kts
26-Mar-18 16:54 47.447697 -122.300827 310 391ft 0kts
26-Mar-18 16:55 47.447697 -122.300827 310 391ft 0kts
26-Mar-18 16:56 47.447697 -122.300827 310 391ft 0kts
26-Mar-18 16:57 47.447697 -122.300827 310 391ft 0kts
26-Mar-18 16:58 47.447697 -122.300827 310 391ft 0kts
26-Mar-18 16:59 47.447697 -122.300827 310 391ft 0kts
26-Mar-18 17:00 47.447697 -122.300827 310 391ft 0kts
26-Mar-18 17:01 47.447697 -122.300827 310 391ft 0kts
26-Mar-18 17:02 47.447697 -122.300827 310 391ft 0kts
26-Mar-18 17:03 47.447697 -122.300827 310 391ft 0kts
26-Mar-18 17:04 47.447697 -122.300827 310 391ft 0kts
26-Mar-18 17:05 47.447697 -122.300827 310 391ft 0kts
26-Mar-18 17:06 47.447697 -122.300827 310 391ft 0kts
26-Mar-18 17:07 47.447697 -122.300827 310 391ft 0kts
26-Mar-18 17:08 47.447697 -122.300827 310 391ft 0kts
26-Mar-18 17:09 47.447403 -122.300264 291 387ft 3kts
26-Mar-18 17:10 47.447520 -122.299684 220 385ft 0kts
26-Mar-18 17:11 47.447520 -122.299684 220 385ft 0kts
26-Mar-18 17:12 47.447520 -122.299684 220 385ft 0kts
26-Mar-18 17:13 47.446734 -122.301644 267 390ft 10kts
26-Mar-18 17:14 47.447988 -122.304854 292 399ft 0kts
26-Mar-18 17:15 47.449570 -122.306059 335 405ft 15kts
26-Mar-18 17:16 47.453087 -122.306223 0 422ft 15kts
26-Mar-18 17:17 47.457318 -122.306174 358 437ft 17kts
26-Mar-18 17:18 47.462023 -122.306153 0 430ft 15kts
26-Mar-18 17:19 47.463578 -122.307720 184 406ft 0kts
26-Mar-18 17:20 47.456149 -122.307817 180 429ft 110kts
26-Mar-18 17:21 47.409527 -122.307477 180 2325ft 189kts
26-Mar-18 17:22 47.348753 -122.306917 182 4817ft 238kts
26-Mar-18 17:23 47.280933 -122.309723 180 7961ft 253kts
26-Mar-18 17:24 47.236336 -122.249309 82 10972ft 303kts
26-Mar-18 17:25 47.290032 -122.149724 40 13764ft 319kts
26-Mar-18 17:26 47.356613 -122.049358 38 15784ft 355kts
26-Mar-18 17:27 47.426733 -121.943262 37 18188ft 368kts
26-Mar-18 17:28 47.499495 -121.833240 37 20276ft 380kts
26-Mar-18 17:29 47.563008 -121.704956 68 21980ft 419kts
26-Mar-18 17:30 47.560456 -121.526941 85 23643ft 440kts
26-Mar-18 17:31 47.557030 -121.345483 86 25186ft 451kts
26-Mar-18 17:32 47.552855 -121.159710 86 26511ft 460kts
26-Mar-18 17:33 47.548808 -120.968512 85 27716ft 468kts
26-Mar-18 17:34 47.545028 -120.774414 85 28754ft 475kts
26-Mar-18 17:35 47.541541 -120.578251 85 29189ft 485kts
26-Mar-18 17:36 47.537997 -120.376358 87 29187ft 495kts
26-Mar-18 17:37 47.526400 -120.175088 89 29183ft 500kts
26-Mar-18 17:38 47.514195 -119.976983 89 28334ft 480kts
26-Mar-18 17:39 47.503383 -119.785468 87 26276ft 460kts
26-Mar-18 17:40 47.493115 -119.599877 88 24248ft 445kts
26-Mar-18 17:41 47.482885 -119.420938 88 22209ft 432kts
26-Mar-18 17:42 47.473299 -119.248960 89 20189ft 421kts
26-Mar-18 17:43 47.464072 -119.079010 89 18233ft 409kts
26-Mar-18 17:44 47.455430 -118.914996 90 16378ft 396kts
26-Mar-18 17:45 47.447177 -118.754125 91 14449ft 387kts
26-Mar-18 17:46 47.439411 -118.598527 91 12743ft 373kts
26-Mar-18 17:47 47.432283 -118.452227 91 11965ft 335kts
26-Mar-18 17:48 47.426201 -118.323507 91 11963ft 320kts
26-Mar-18 17:49 47.447173 -118.201263 68 11971ft 305kts
26-Mar-18 17:50 47.503351 -118.121277 56 11035ft 301kts
26-Mar-18 17:51 47.525155 -118.000336 74 9983ft 296kts
26-Mar-18 17:52 47.546253 -117.887002 74 9975ft 285kts
26-Mar-18 17:53 47.594277 -117.795513 44 9974ft 288kts
26-Mar-18 17:54 47.651657 -117.712978 44 9895ft 291kts
26-Mar-18 17:55 47.710819 -117.627797 44 8414ft 299kts
26-Mar-18 17:56 47.771431 -117.540485 43 6707ft 313kts
26-Mar-18 17:57 47.833006 -117.451635 43 5310ft 286kts
26-Mar-18 17:58 47.850482 -117.360708 145 5024ft 230kts
26-Mar-18 17:59 47.798272 -117.337424 194 4998ft 203kts
26-Mar-18 18:00 47.745983 -117.354774 194 4021ft 181kts
26-Mar-18 18:01 47.709875 -117.399746 225 4004ft 174kts
26-Mar-18 18:02 47.678013 -117.447802 225 3835ft 149kts
26-Mar-18 18:03 47.651123 -117.488163 224 2911ft 132kts
26-Mar-18 18:04 47.626098 -117.525951 225 2349ft 101kts
26-Mar-18 18:05 47.620013 -117.537518 255 2365ft 10kts
26-Mar-18 18:06 47.622154 -117.537402 325 2362ft 8kts
26-Mar-18 18:07 47.623886 -117.535075 331 2359ft 3kts
26-Mar-18 18:08 47.624278 -117.535473 321 2359ft 0kts
26-Mar-18 18:09 47.624278 -117.535473 321 2359ft 0kts

Navigation Log

Ident Type
1. KSEA Airport
2. ZADON Fix
3. ZELAK Fix
4. ZIRAN Fix
5. ZOOMR Fix
6. GANGS Fix
7. KNOCK Fix
8. KGEG Airport